Time;durP1;ratioP1;P1;durP2;ratioP2;P2;SDS_P1;SDS_P2;PMS_P1;PMS_P2;Temp;Humidity;BMP_temperature;BMP_pressure;BME280_temperature;BME280_humidity;BME280_pressure;Samples;Min_cycle;Max_cycle;Signal;HPM_P1;HPM_P2
2021/11/30 00:00:12;;;;;;;;;13.00;13.00;;;;;5.31;100.00;101641.59;5017182;28;45880;-86
2021/11/30 00:02:38;;;;;;;;;19.00;16.00;;;;;5.25;100.00;101626.59;5019016;28;45338;-89
2021/11/30 00:05:06;;;;;;;;;9.75;9.75;;;;;5.35;100.00;101641.03;5034374;28;45338;-83
2021/11/30 00:07:33;;;;;;;;;13.75;13.75;;;;;5.14;100.00;101605.19;5036540;28;47979;-92
2021/11/30 00:12:36;;;;;;;;;16.75;15.00;;;;;5.45;100.00;101634.97;5026872;28;45751;-79
2021/11/30 00:15:04;;;;;;;;;14.50;14.25;;;;;5.37;100.00;101614.75;5003532;28;45281;-87
2021/11/30 00:17:30;;;;;;;;;13.75;13.75;;;;;5.35;100.00;101612.81;5021259;28;45336;-91
2021/11/30 00:19:55;;;;;;;;;15.75;11.25;;;;;5.45;100.00;101638.47;5020320;28;45264;-88
2021/11/30 00:22:24;;;;;;;;;14.00;11.75;;;;;5.36;100.00;101619.72;5018554;28;45278;-81
2021/11/30 00:24:51;;;;;;;;;15.25;12.00;;;;;5.42;100.00;101617.66;5021096;28;45630;-91
2021/11/30 00:27:17;;;;;;;;;12.00;11.50;;;;;5.48;100.00;101623.28;5024289;28;45359;-92
2021/11/30 00:29:43;;;;;;;;;15.50;12.25;;;;;5.48;100.00;101623.28;5020200;28;45430;-92
2021/11/30 00:32:10;;;;;;;;;14.75;12.00;;;;;5.45;100.00;101617.00;5018904;28;45228;-87
2021/11/30 00:34:36;;;;;;;;;15.25;10.25;;;;;5.52;100.00;101622.75;5020051;28;45226;-91
2021/11/30 00:37:03;;;;;;;;;10.50;10.50;;;;;5.49;100.00;101608.78;5001092;28;45612;-92
2021/11/30 00:39:28;;;;;;;;;13.25;11.75;;;;;5.58;100.00;101615.50;5021706;28;45296;-88
2021/11/30 00:41:58;;;;;;;;;15.00;10.75;;;;;5.55;100.00;101599.88;5021566;28;45210;-91
2021/11/30 00:44:28;;;;;;;;;13.75;13.75;;;;;5.55;100.00;101588.69;5011445;28;45582;-91
2021/11/30 00:46:56;;;;;;;;;11.50;8.00;;;;;5.53;100.00;101598.84;5023836;28;45362;-84
2021/11/30 00:49:23;;;;;;;;;8.75;8.75;;;;;5.65;100.00;101611.75;5028844;28;45391;-83
2021/11/30 00:51:50;;;;;;;;;13.75;11.25;;;;;5.62;100.00;101610.63;5032375;28;45246;-82
2021/11/30 00:54:17;;;;;;;;;10.00;10.00;;;;;5.64;100.00;101609.94;5028393;28;45223;-91
2021/11/30 00:56:45;;;;;;;;;10.25;10.00;;;;;5.59;100.00;101601.00;5040846;28;45248;-91
2021/11/30 00:59:11;;;;;;;;;15.00;10.75;;;;;5.51;100.00;101582.41;5021387;28;45199;-93
2021/11/30 01:01:39;;;;;;;;;12.75;10.25;;;;;5.52;100.00;101579.09;5016990;28;45272;-90
2021/11/30 01:04:06;;;;;;;;;11.50;11.00;;;;;5.73;100.00;101614.91;5046514;28;44961;-91
2021/11/30 01:06:34;;;;;;;;;17.00;11.25;;;;;5.64;100.00;101591.97;5056007;28;46544;-90
2021/11/30 01:09:00;;;;;;;;;13.00;11.25;;;;;5.76;100.00;101615.16;5032165;28;45242;-91
2021/11/30 01:11:26;;;;;;;;;12.50;9.75;;;;;5.67;100.00;101583.63;5013723;28;44999;-88
2021/11/30 01:13:51;;;;;;;;;11.75;9.75;;;;;5.64;100.00;101575.66;5043738;28;44754;-85
2021/11/30 01:16:17;;;;;;;;;15.25;11.00;;;;;5.69;100.00;101593.22;5038293;28;45350;-91
2021/11/30 01:18:42;;;;;;;;;12.00;12.00;;;;;5.62;100.00;101570.38;5023178;28;45373;-91
2021/11/30 01:21:08;;;;;;;;;17.00;10.50;;;;;5.79;100.00;101606.78;5020343;28;45322;-92
2021/11/30 01:23:34;;;;;;;;;10.50;10.25;;;;;5.82;100.00;101600.19;5001613;28;45302;-90
2021/11/30 01:26:00;;;;;;;;;11.75;9.00;;;;;5.80;100.00;101583.75;5018831;28;45348;-91
2021/11/30 01:28:27;;;;;;;;;11.25;8.00;;;;;5.84;100.00;101598.66;5020513;28;45242;-89
2021/11/30 01:30:54;;;;;;;;;13.25;10.75;;;;;5.77;100.00;101570.69;5022704;28;45360;-81
2021/11/30 01:33:19;;;;;;;;;11.50;11.50;;;;;5.91;100.00;101575.97;5017946;28;45284;-80
2021/11/30 01:35:46;;;;;;;;;13.50;11.50;;;;;5.71;100.00;101541.94;5017651;28;45421;-82
2021/11/30 01:38:14;;;;;;;;;6.00;6.00;;;;;5.89;100.00;101569.03;5016987;28;45952;-90
2021/11/30 01:40:41;;;;;;;;;15.00;11.50;;;;;5.85;100.00;101573.84;5017377;28;45246;-83
2021/11/30 01:43:09;;;;;;;;;11.25;10.50;;;;;5.74;100.00;101537.94;5017251;28;45519;-78
2021/11/30 01:50:37;;;;;;;;;11.00;9.00;;;;;5.96;100.00;101566.94;5021267;28;45241;-92
2021/11/30 01:53:04;;;;;;;;;17.50;12.75;;;;;6.06;100.00;101573.69;5018540;28;45727;-90
2021/11/30 01:55:31;;;;;;;;;13.00;11.50;;;;;5.99;100.00;101557.81;5018457;28;45764;-91
2021/11/30 01:57:58;;;;;;;;;14.75;9.00;;;;;6.01;100.00;101546.00;5003086;28;45283;-90
2021/11/30 02:00:25;;;;;;;;;12.00;10.25;;;;;6.09;100.00;101549.13;5020640;28;45502;-89
2021/11/30 02:02:51;;;;;;;;;17.00;11.75;;;;;6.19;100.00;101566.13;5018432;28;45322;-91
2021/11/30 02:05:16;;;;;;;;;10.75;10.75;;;;;6.03;100.00;101523.88;5017772;28;46474;-90
2021/11/30 02:07:43;;;;;;;;;11.00;11.00;;;;;6.09;100.00;101533.72;5018733;28;45407;-91
2021/11/30 02:10:11;;;;;;;;;11.00;8.00;;;;;6.05;100.00;101531.69;5015949;28;45326;-81
2021/11/30 02:12:38;;;;;;;;;11.50;11.50;;;;;6.22;100.00;101555.16;5015941;28;45689;-81
2021/11/30 02:15:10;;;;;;;;;10.25;9.50;;;;;6.21;100.00;101553.41;5014890;28;45257;-80
2021/11/30 02:17:37;;;;;;;;;9.50;9.50;;;;;6.10;100.00;101534.59;5019033;28;45440;-92
2021/11/30 02:20:04;;;;;;;;;10.50;9.50;;;;;5.96;100.00;101506.16;5021263;28;45638;-90
2021/11/30 02:22:30;;;;;;;;;9.00;8.75;;;;;5.94;100.00;101502.56;5001729;28;45283;-88
2021/11/30 02:24:56;;;;;;;;;19.25;12.75;;;;;5.93;100.00;101515.31;5017054;28;45538;-92
2021/11/30 02:27:23;;;;;;;;;15.25;11.75;;;;;5.93;100.00;101511.09;5017544;28;45434;-91
2021/11/30 02:29:49;;;;;;;;;11.50;11.00;;;;;5.89;100.00;101509.94;5017868;28;45356;-89
2021/11/30 02:32:16;;;;;;;;;12.25;10.75;;;;;6.03;100.00;101536.72;5018210;28;45595;-92
2021/11/30 02:34:42;;;;;;;;;12.00;12.00;;;;;6.03;100.00;101529.00;5017826;28;45579;-92
2021/11/30 02:37:16;;;;;;;;;11.25;9.25;;;;;6.01;100.00;101522.84;5017845;28;45486;-91
2021/11/30 02:39:44;;;;;;;;;13.50;10.25;;;;;5.99;100.00;101514.13;5018726;28;45215;-91
2021/11/30 02:42:11;;;;;;;;;11.00;10.25;;;;;5.91;100.00;101492.06;5021004;28;45627;-91
2021/11/30 02:44:37;;;;;;;;;11.00;9.25;;;;;6.11;100.00;101527.00;5021970;28;46112;-90
2021/11/30 02:47:07;;;;;;;;;9.75;8.50;;;;;6.13;100.00;101507.44;5031315;28;45219;-90
2021/11/30 02:49:36;;;;;;;;;8.50;8.50;;;;;6.15;100.00;101503.31;5035044;28;45291;-89
2021/11/30 02:52:06;;;;;;;;;11.50;11.00;;;;;6.09;100.00;101509.66;5032283;28;45372;-81
2021/11/30 02:54:35;;;;;;;;;10.25;9.00;;;;;6.19;100.00;101528.47;5026716;28;46191;-89
2021/11/30 02:57:05;;;;;;;;;11.00;11.00;;;;;6.14;100.00;101513.50;5022175;28;45990;-79
2021/11/30 02:59:34;;;;;;;;;12.25;11.75;;;;;6.20;100.00;101519.06;5020439;28;45225;-90
2021/11/30 03:02:04;;;;;;;;;12.75;12.00;;;;;6.31;100.00;101520.75;5008243;28;45394;-91
2021/11/30 03:04:32;;;;;;;;;11.75;11.25;;;;;6.32;100.00;101517.41;5022091;28;45401;-89
2021/11/30 03:06:58;;;;;;;;;14.50;12.50;;;;;6.43;100.00;101527.59;5020596;28;46433;-89
2021/11/30 03:09:24;;;;;;;;;9.00;9.00;;;;;6.38;100.00;101514.38;5020582;28;45341;-91
2021/11/30 03:11:51;;;;;;;;;9.25;9.25;;;;;6.45;100.00;101516.63;5020346;28;45559;-88
2021/11/30 03:14:17;;;;;;;;;12.00;12.00;;;;;6.55;100.00;101525.91;5020685;28;45463;-91
2021/11/30 03:16:46;;;;;;;;;12.50;11.25;;;;;6.56;100.00;101530.28;5021206;28;45443;-93
2021/11/30 03:19:15;;;;;;;;;9.00;9.00;;;;;6.56;100.00;101527.69;5021515;28;45299;-91
2021/11/30 03:21:42;;;;;;;;;10.50;9.00;;;;;6.63;100.00;101534.19;5020873;28;45556;-89
2021/11/30 03:24:08;;;;;;;;;11.00;9.50;;;;;6.54;100.00;101510.34;5027096;28;45316;-89
2021/11/30 03:26:33;;;;;;;;;12.25;10.00;;;;;6.70;100.00;101526.13;5030938;28;45373;-84
2021/11/30 03:28:59;;;;;;;;;12.50;10.50;;;;;6.64;100.00;101518.84;5037013;28;45415;-79
2021/11/30 03:31:46;;;;;;;;;12.00;12.00;;;;;6.66;100.00;101513.81;5024664;28;45358;-78
2021/11/30 03:34:18;;;;;;;;;9.50;8.75;;;;;6.73;100.00;101516.06;5019047;28;45616;-80
2021/11/30 03:36:47;;;;;;;;;11.50;8.00;;;;;6.82;100.00;101536.38;5018677;28;45436;-82
2021/11/30 03:39:17;;;;;;;;;8.00;8.00;;;;;6.78;100.00;101518.94;5024784;28;45536;-89
2021/11/30 03:41:44;;;;;;;;;9.00;8.50;;;;;6.76;100.00;101536.84;5024320;28;45285;-88
2021/11/30 03:44:09;;;;;;;;;9.50;9.00;;;;;6.68;100.00;101522.53;5029933;28;45451;-89
2021/11/30 03:46:35;;;;;;;;;10.25;10.25;;;;;6.66;100.00;101524.09;5024401;28;45307;-86
2021/11/30 03:49:03;;;;;;;;;12.75;9.00;;;;;6.67;100.00;101528.47;5019501;28;45347;-87
2021/11/30 03:51:29;;;;;;;;;12.75;12.50;;;;;6.74;100.00;101535.88;5019984;28;45628;-80
2021/11/30 03:53:55;;;;;;;;;11.00;9.00;;;;;6.75;100.00;101523.88;5017378;28;45436;-80
2021/11/30 03:56:20;;;;;;;;;9.75;9.75;;;;;6.82;100.00;101532.16;5017839;28;45378;-80
2021/11/30 03:58:46;;;;;;;;;15.00;14.00;;;;;6.77;100.00;101541.19;5018737;28;45261;-80
2021/11/30 04:01:12;;;;;;;;;15.00;12.00;;;;;6.85;100.00;101551.19;5017677;28;45602;-80
2021/11/30 04:03:40;;;;;;;;;10.50;9.00;;;;;6.81;100.00;101534.59;5019665;28;46113;-80
2021/11/30 04:06:05;;;;;;;;;8.00;8.00;;;;;6.80;100.00;101523.41;5002472;28;45803;-83
2021/11/30 04:08:32;;;;;;;;;9.50;8.50;;;;;6.78;100.00;101527.56;5022549;28;45364;-81
2021/11/30 04:10:58;;;;;;;;;12.50;9.50;;;;;6.78;100.00;101530.13;5018327;28;45634;-83
2021/11/30 04:13:24;;;;;;;;;9.00;7.00;;;;;6.77;100.00;101550.63;5001593;28;46968;-90
2021/11/30 04:15:49;;;;;;;;;8.50;8.50;;;;;6.75;100.00;101537.63;5017321;28;45475;-82
2021/11/30 04:18:15;;;;;;;;;12.75;10.75;;;;;6.63;100.00;101498.16;5019145;28;45354;-81
2021/11/30 04:20:41;;;;;;;;;13.25;11.25;;;;;6.77;100.00;101524.88;5022863;28;45346;-90
2021/11/30 04:23:06;;;;;;;;;11.50;10.50;;;;;6.66;100.00;101506.09;5023046;28;46035;-88
2021/11/30 04:25:32;;;;;;;;;12.00;11.75;;;;;6.54;100.00;101489.75;5022413;28;45426;-88
2021/11/30 04:27:58;;;;;;;;;9.50;9.25;;;;;6.56;100.00;101501.06;5018577;28;45383;-89
2021/11/30 04:30:23;;;;;;;;;12.75;10.25;;;;;6.44;100.00;101486.53;5019419;28;45401;-90
2021/11/30 04:32:49;;;;;;;;;13.75;9.75;;;;;6.44;100.00;101494.25;5018242;28;45342;-89
2021/11/30 04:35:15;;;;;;;;;12.25;12.25;;;;;6.42;100.00;101502.66;5019462;28;45365;-88
2021/11/30 04:37:41;;;;;;;;;14.75;10.50;;;;;6.39;100.00;101490.47;5019075;28;45324;-90
2021/11/30 04:40:11;;;;;;;;;11.00;11.00;;;;;6.41;100.00;101495.69;5019529;28;45320;-86
2021/11/30 04:42:38;;;;;;;;;11.00;10.00;;;;;6.34;100.00;101497.84;5023630;28;45510;-89
2021/11/30 04:45:11;;;;;;;;;9.50;9.00;;;;;6.44;100.00;101512.25;5025651;28;45860;-88
2021/11/30 04:47:40;;;;;;;;;12.25;9.00;;;;;6.34;100.00;101521.00;5026471;28;45351;-90
2021/11/30 04:50:19;;;;;;;;;11.25;8.50;;;;;6.31;100.00;101507.03;5019741;28;45224;-89
2021/11/30 04:52:46;;;;;;;;;9.75;8.00;;;;;6.36;100.00;101515.94;5019411;28;45583;-90
2021/11/30 04:55:12;;;;;;;;;11.00;8.50;;;;;6.22;100.00;101481.50;5006203;28;45428;-82
2021/11/30 04:57:38;;;;;;;;;11.50;9.00;;;;;6.39;100.00;101504.97;5025261;28;45344;-90
2021/11/30 05:00:04;;;;;;;;;13.00;9.25;;;;;6.38;100.00;101513.47;5007032;28;45350;-83
2021/11/30 05:02:30;;;;;;;;;13.25;11.00;;;;;6.30;100.00;101524.09;5016871;28;46367;-81
2021/11/30 05:04:56;;;;;;;;;13.25;11.25;;;;;6.34;100.00;101507.22;5017136;28;45188;-80
2021/11/30 05:07:21;;;;;;;;;10.50;8.50;;;;;6.17;100.00;101480.28;5016792;28;45294;-80
2021/11/30 05:09:47;;;;;;;;;11.00;11.00;;;;;6.32;100.00;101519.97;5017192;28;45457;-79
2021/11/30 05:12:13;;;;;;;;;12.00;10.75;;;;;6.32;100.00;101503.63;5016728;28;46178;-85
2021/11/30 05:14:39;;;;;;;;;11.00;9.00;;;;;6.32;100.00;101506.22;5016702;28;45272;-79
2021/11/30 05:17:04;;;;;;;;;8.75;8.75;;;;;6.25;100.00;101493.69;5016429;28;45325;-78
2021/11/30 05:19:30;;;;;;;;;11.50;9.50;;;;;6.25;100.00;101486.88;5015055;28;45621;-79
2021/11/30 05:21:56;;;;;;;;;11.50;11.00;;;;;6.39;100.00;101503.31;5027907;28;46193;-85
2021/11/30 05:24:21;;;;;;;;;9.50;8.25;;;;;6.34;100.00;101492.69;5017990;28;45347;-86
2021/11/30 05:26:49;;;;;;;;;8.75;8.75;;;;;6.35;100.00;101496.16;5018539;28;45347;-87
2021/11/30 05:29:15;;;;;;;;;10.75;10.75;;;;;6.32;100.00;101509.69;5016776;28;45351;-85
2021/11/30 05:31:41;;;;;;;;;10.75;7.00;;;;;6.17;100.00;101462.28;4978988;28;45397;-85
2021/11/30 05:34:07;;;;;;;;;13.75;12.50;;;;;6.24;100.00;101473.91;5010537;28;45248;-86
2021/11/30 05:36:33;;;;;;;;;9.25;9.25;;;;;6.30;100.00;101490.69;5017242;28;45283;-88
2021/11/30 05:39:00;;;;;;;;;9.25;7.75;;;;;6.32;100.00;101480.50;5017320;28;45360;-87
2021/11/30 05:41:26;;;;;;;;;8.50;8.50;;;;;6.31;100.00;101491.59;5017606;28;46202;-87
2021/11/30 05:43:52;;;;;;;;;10.50;9.00;;;;;6.29;100.00;101493.16;5029209;28;45447;-82
2021/11/30 05:46:19;;;;;;;;;8.00;7.00;;;;;6.28;100.00;101499.94;5019478;28;45335;-80
2021/11/30 05:48:45;;;;;;;;;7.50;7.50;;;;;6.25;100.00;101471.47;5018556;28;45412;-84
2021/11/30 05:51:11;;;;;;;;;10.25;8.00;;;;;6.34;100.00;101496.94;5000194;28;46772;-83
2021/11/30 05:53:37;;;;;;;;;11.50;9.25;;;;;6.35;100.00;101485.88;5016872;28;45805;-85
2021/11/30 05:56:08;;;;;;;;;12.50;9.50;;;;;6.41;100.00;101488.91;5017763;28;45500;-82
2021/11/30 05:58:38;;;;;;;;;10.00;7.25;;;;;6.45;100.00;101502.88;5019865;28;45536;-85
2021/11/30 06:01:12;;;;;;;;;12.75;11.25;;;;;6.54;100.00;101480.38;5016579;28;45772;-84
2021/11/30 06:06:18;;;;;;;;;10.00;10.00;;;;;6.57;100.00;101484.84;5019199;28;45416;-88
2021/11/30 06:08:45;;;;;;;;;11.50;8.50;;;;;6.58;100.00;101484.06;5018259;28;45611;-90
2021/11/30 06:11:10;;;;;;;;;13.00;11.50;;;;;6.63;100.00;101488.75;5016900;28;45322;-89
2021/11/30 06:13:36;;;;;;;;;9.50;7.00;;;;;6.59;100.00;101485.84;5029438;28;45124;-82
2021/11/30 06:16:02;;;;;;;;;11.25;9.25;;;;;6.63;100.00;101480.16;5029756;28;45246;-88
2021/11/30 06:18:27;;;;;;;;;10.00;7.50;;;;;6.50;100.00;101455.22;5015093;28;45416;-89
2021/11/30 06:20:53;;;;;;;;;9.25;6.50;;;;;6.70;100.00;101484.03;5033258;28;46130;-90
2021/11/30 06:23:18;;;;;;;;;13.00;9.00;;;;;6.70;100.00;101468.59;5016300;28;44854;-84
2021/11/30 06:25:45;;;;;;;;;11.50;9.25;;;;;6.63;100.00;101454.44;5040257;28;45345;-81
2021/11/30 06:28:10;;;;;;;;;8.75;8.75;;;;;6.72;100.00;101475.66;5031716;28;45653;-80
2021/11/30 06:30:36;;;;;;;;;12.50;9.75;;;;;6.66;100.00;101494.13;5020325;28;47749;-87
2021/11/30 06:33:02;;;;;;;;;10.25;9.25;;;;;6.73;100.00;101484.25;5005125;28;44854;-87
2021/11/30 06:35:28;;;;;;;;;13.25;9.25;;;;;6.55;100.00;101463.25;5025292;28;45322;-87
2021/11/30 06:37:53;;;;;;;;;8.75;7.00;;;;;6.72;100.00;101491.09;5021851;28;45494;-88
2021/11/30 06:40:20;;;;;;;;;9.75;8.00;;;;;6.63;100.00;101472.44;5021340;28;45477;-81
2021/11/30 06:42:46;;;;;;;;;8.00;5.50;;;;;6.72;100.00;101496.25;5026978;28;45239;-89
2021/11/30 06:45:12;;;;;;;;;9.00;8.00;;;;;6.59;100.00;101461.00;5023023;28;45439;-84
2021/11/30 06:47:40;;;;;;;;;8.75;8.00;;;;;6.74;100.00;101470.63;5022393;28;45413;-88
2021/11/30 06:50:06;;;;;;;;;8.75;7.25;;;;;6.70;100.00;101459.22;5018520;28;46811;-82
2021/11/30 06:52:32;;;;;;;;;9.50;9.50;;;;;6.78;100.00;101488.06;5017913;28;45475;-83
2021/11/30 06:54:57;;;;;;;;;12.75;11.75;;;;;6.75;100.00;101475.84;5018050;28;45303;-85
2021/11/30 06:57:23;;;;;;;;;12.25;9.00;;;;;6.81;100.00;101478.88;5017951;28;45454;-84
2021/11/30 06:59:51;;;;;;;;;9.00;8.00;;;;;6.72;100.00;101492.75;5017563;28;45558;-82
2021/11/30 07:02:16;;;;;;;;;12.50;9.00;;;;;6.63;100.00;101469.88;5025396;28;45240;-80
2021/11/30 07:04:44;;;;;;;;;12.00;8.50;;;;;6.57;100.00;101447.16;5017504;28;45892;-85
2021/11/30 07:07:26;;;;;;;;;8.50;8.50;;;;;6.71;100.00;101466.16;5018691;28;45407;-81
2021/11/30 07:12:50;;;;;;;;;10.25;9.00;;;;;6.64;100.00;101449.38;5006077;28;45867;-83
2021/11/30 07:15:16;;;;;;;;;14.50;10.00;;;;;6.59;100.00;101447.25;4998809;28;45360;-83
2021/11/30 07:17:45;;;;;;;;;11.75;8.50;;;;;6.80;100.00;101483.94;4999089;28;45691;-82
2021/11/30 07:20:11;;;;;;;;;12.50;10.00;;;;;6.80;100.00;101489.97;5007668;28;45460;-82
2021/11/30 07:22:36;;;;;;;;;12.25;9.00;;;;;6.75;100.00;101467.25;5017291;28;45435;-82
2021/11/30 07:25:02;;;;;;;;;12.50;12.50;;;;;6.85;100.00;101484.25;5016901;28;45406;-84
2021/11/30 07:27:28;;;;;;;;;9.25;9.25;;;;;6.75;100.00;101485.28;4998531;28;45612;-82
2021/11/30 07:29:54;;;;;;;;;9.25;8.25;;;;;6.89;100.00;101496.53;5016346;28;45990;-74
2021/11/30 07:32:20;;;;;;;;;12.25;11.50;;;;;6.83;100.00;101489.28;5017422;28;45953;-79
2021/11/30 07:34:46;;;;;;;;;15.25;8.75;;;;;6.95;100.00;101497.00;5017415;28;45444;-78
2021/11/30 07:37:11;;;;;;;;;18.25;9.00;;;;;6.96;100.00;101506.50;5016943;28;45506;-78
2021/11/30 07:39:37;;;;;;;;;13.25;9.00;;;;;6.90;100.00;101494.09;5016719;28;45426;-79
2021/11/30 07:42:03;;;;;;;;;12.75;11.75;;;;;6.91;100.00;101500.13;5016689;28;45467;-78
2021/11/30 07:44:28;;;;;;;;;9.00;9.00;;;;;6.91;100.00;101505.28;5016415;28;45537;-82
2021/11/30 07:46:54;;;;;;;;;12.25;10.00;;;;;6.92;100.00;101496.75;5020093;28;45821;-78
2021/11/30 07:49:21;;;;;;;;;14.25;11.50;;;;;6.83;100.00;101489.28;5016604;28;45548;-80
2021/11/30 07:51:47;;;;;;;;;15.50;9.00;;;;;6.86;100.00;101492.06;5015829;28;46495;-78
2021/11/30 07:54:13;;;;;;;;;12.25;8.50;;;;;6.84;100.00;101485.03;5017680;28;45514;-76
2021/11/30 07:56:38;;;;;;;;;14.75;11.25;;;;;6.87;100.00;101504.16;5015335;28;45559;-77
2021/11/30 07:59:04;;;;;;;;;14.50;14.25;;;;;6.96;100.00;101503.94;5025466;28;45904;-77
2021/11/30 08:01:31;;;;;;;;;16.00;13.75;;;;;7.00;100.00;101521.38;5035849;28;45588;-81
2021/11/30 08:03:56;;;;;;;;;13.75;13.25;;;;;6.98;100.00;101507.47;5016436;28;45768;-81
2021/11/30 08:06:22;;;;;;;;;14.50;13.25;;;;;6.97;100.00;101506.59;5016220;28;45396;-82
2021/11/30 08:08:50;;;;;;;;;14.25;13.75;;;;;6.94;100.00;101508.94;5029555;28;48042;-80
2021/11/30 08:11:16;;;;;;;;;14.25;12.50;;;;;6.94;100.00;101519.25;5016698;28;45918;-80
2021/11/30 08:13:41;;;;;;;;;12.00;10.25;;;;;6.84;100.00;101487.63;5016101;28;45482;-82
2021/11/30 08:16:08;;;;;;;;;16.75;15.25;;;;;6.95;100.00;101512.44;5017188;28;45194;-80
2021/11/30 08:18:34;;;;;;;;;16.25;13.75;;;;;6.94;100.00;101520.94;5017074;28;45302;-85
2021/11/30 08:20:59;;;;;;;;;15.50;13.25;;;;;6.96;100.00;101514.22;5017007;28;45322;-83
2021/11/30 08:23:25;;;;;;;;;14.25;13.00;;;;;7.00;100.00;101505.91;5017257;28;45636;-82
2021/11/30 08:25:51;;;;;;;;;13.75;13.75;;;;;7.00;100.00;101511.06;5018301;28;45292;-79
2021/11/30 08:28:19;;;;;;;;;13.00;13.00;;;;;7.01;100.00;101523.16;5016044;28;46920;-83
2021/11/30 08:30:48;;;;;;;;;13.75;11.75;;;;;7.02;100.00;101513.75;5017810;28;45254;-83
2021/11/30 08:33:15;;;;;;;;;14.50;14.00;;;;;6.94;100.00;101521.81;5017568;28;45342;-79
2021/11/30 08:35:41;;;;;;;;;14.50;12.25;;;;;7.02;100.00;101514.66;5016954;28;45384;-78
2021/11/30 08:38:06;;;;;;;;;13.00;12.75;;;;;6.83;100.00;101494.41;5016158;28;45461;-76
2021/11/30 08:40:33;;;;;;;;;14.00;14.00;;;;;7.02;100.00;101526.63;5015403;28;45333;-76
2021/11/30 08:42:58;;;;;;;;;14.75;14.00;;;;;6.99;100.00;101517.00;5015067;28;45243;-72
2021/11/30 08:45:24;;;;;;;;;19.75;18.00;;;;;6.96;100.00;101514.22;5023625;28;46847;-78
2021/11/30 08:47:50;;;;;;;;;20.25;15.75;;;;;7.03;100.00;101528.41;5017428;28;45505;-78
2021/11/30 08:50:18;;;;;;;;;23.50;16.75;;;;;7.00;100.00;101503.34;5019866;28;45326;-78
2021/11/30 08:52:45;;;;;;;;;18.50;14.00;;;;;7.05;100.00;101509.72;5016585;28;45524;-79
2021/11/30 08:55:12;;;;;;;;;19.75;18.25;;;;;7.10;100.00;101522.91;5016206;28;45352;-82
2021/11/30 08:57:38;;;;;;;;;21.00;16.25;;;;;7.02;100.00;101506.91;5016051;28;45411;-81
2021/11/30 09:00:08;;;;;;;;;15.25;14.00;;;;;7.08;100.00;101501.31;5016070;28;45842;-81
2021/11/30 09:02:35;;;;;;;;;19.50;15.00;;;;;7.15;100.00;101502.63;5016454;28;45329;-80
2021/11/30 09:05:04;;;;;;;;;18.00;18.00;;;;;7.19;100.00;101507.19;5016545;28;45476;-80
2021/11/30 09:07:29;;;;;;;;;14.00;14.00;;;;;7.24;100.00;101511.88;5016301;28;45504;-78
2021/11/30 09:09:55;;;;;;;;;18.25;15.00;;;;;7.23;100.00;101509.22;5015999;28;45444;-78
2021/11/30 09:12:20;;;;;;;;;25.25;17.00;;;;;7.25;100.00;101518.81;5015736;28;45181;-76
2021/11/30 09:14:46;;;;;;;;;18.50;15.50;;;;;7.19;100.00;101496.88;5015914;28;45312;-76
2021/11/30 09:17:13;;;;;;;;;23.25;18.00;;;;;7.33;100.00;101519.34;5015822;28;46267;-79
2021/11/30 09:19:39;;;;;;;;;12.75;12.25;;;;;7.33;100.00;101513.31;5016666;28;45296;-77
2021/11/30 09:22:05;;;;;;;;;15.00;12.50;;;;;7.33;100.00;101514.22;5016006;28;45383;-76
2021/11/30 09:24:31;;;;;;;;;19.00;16.75;;;;;7.30;100.00;101515.69;5016168;28;45595;-76
2021/11/30 09:26:57;;;;;;;;;19.25;16.50;;;;;7.27;100.00;101503.50;5015572;28;46398;-77
2021/11/30 09:29:23;;;;;;;;;23.25;18.75;;;;;7.40;100.00;101502.66;5015773;28;45945;-76
2021/11/30 09:31:49;;;;;;;;;21.00;16.00;;;;;7.41;100.00;101500.16;5016272;28;45427;-81
2021/11/30 09:34:15;;;;;;;;;19.25;14.00;;;;;7.49;100.00;101508.44;4999017;28;45575;-79
2021/11/30 09:36:43;;;;;;;;;20.75;17.75;;;;;7.51;100.00;101501.69;5016051;28;45900;-78
2021/11/30 09:39:09;;;;;;;;;15.50;13.50;;;;;7.57;100.00;101533.03;5032546;28;45889;-78
2021/11/30 09:41:35;;;;;;;;;20.25;15.75;;;;;7.49;100.00;101525.59;5016876;28;45406;-83
2021/11/30 09:44:02;;;;;;;;;19.75;15.50;;;;;7.44;100.00;101536.47;5016457;28;45481;-79
2021/11/30 09:46:28;;;;;;;;;24.00;18.50;;;;;7.47;100.00;101515.16;5015935;28;45482;-79
2021/11/30 09:48:53;;;;;;;;;20.50;18.25;;;;;7.48;100.00;101526.38;5015525;28;45320;-78
2021/11/30 09:51:19;;;;;;;;;18.50;17.50;;;;;7.43;100.00;101513.16;5014897;28;45403;-85
2021/11/30 09:53:45;;;;;;;;;19.00;18.00;;;;;7.40;100.00;101507.81;5017280;28;45647;-82
2021/11/30 09:56:11;;;;;;;;;28.00;21.50;;;;;7.45;100.00;101509.00;5018109;28;46141;-86
2021/11/30 09:58:37;;;;;;;;;22.25;19.75;;;;;7.51;100.00;101519.75;5019783;28;45303;-87
2021/11/30 10:01:04;;;;;;;;;24.00;18.25;;;;;7.54;100.00;101509.66;5017183;28;45550;-79
2021/11/30 10:03:30;;;;;;;;;22.25;20.50;;;;;7.56;100.00;101514.91;5019481;28;45328;-87
2021/11/30 10:05:57;;;;;;;;;19.75;19.50;;;;;7.63;100.00;101526.53;5016141;28;45582;-86
2021/11/30 10:08:36;;;;;;;;;18.75;15.50;;;;;7.66;100.00;101524.16;5016811;28;45348;-86
2021/11/30 10:11:03;;;;;;;;;27.00;22.25;;;;;7.70;100.00;101514.16;5024030;28;45174;-85
2021/11/30 10:13:30;;;;;;;;;29.25;21.25;;;;;7.63;100.00;101505.91;5025008;28;45309;-83
2021/11/30 10:16:01;;;;;;;;;16.00;12.75;;;;;7.64;100.00;101495.69;5019869;28;45540;-79
2021/11/30 10:18:32;;;;;;;;;15.75;13.25;;;;;7.80;100.00;101507.03;5020098;28;45238;-82
2021/11/30 10:21:09;;;;;;;;;18.50;16.75;;;;;7.85;100.00;101508.22;5018006;28;45402;-84
2021/11/30 10:23:46;;;;;;;;;18.75;14.50;;;;;7.86;100.00;101500.63;5016343;28;45355;-81
2021/11/30 10:26:12;;;;;;;;;17.25;16.25;;;;;7.86;100.00;101504.88;5014891;28;45205;-83
2021/11/30 10:28:38;;;;;;;;;16.25;15.00;;;;;7.92;100.00;101504.38;5015860;28;45709;-82
2021/11/30 10:31:09;;;;;;;;;20.00;17.25;;;;;7.93;100.00;101501.03;5015742;28;45564;-83
2021/11/30 10:33:34;;;;;;;;;19.00;17.00;;;;;7.82;100.00;101490.00;4997918;28;45416;-81
2021/11/30 10:36:02;;;;;;;;;18.25;15.75;;;;;7.94;100.00;101521.72;5017851;28;46095;-85
2021/11/30 10:38:40;;;;;;;;;18.00;16.50;;;;;7.84;100.00;101485.81;5018126;28;45955;-86
2021/11/30 10:41:21;;;;;;;;;17.25;15.25;;;;;8.03;100.00;101500.84;5016895;28;45230;-84
2021/11/30 10:43:56;;;;;;;;;19.50;16.75;;;;;8.07;100.00;101497.69;5016764;28;45166;-86
2021/11/30 10:46:28;;;;;;;;;16.25;13.25;;;;;8.10;100.00;101520.19;5015113;28;46466;-80
2021/11/30 10:48:55;;;;;;;;;19.00;15.25;;;;;8.12;100.00;101479.94;5015229;28;45430;-83
2021/11/30 10:51:22;;;;;;;;;17.25;15.25;;;;;8.21;100.00;101504.63;5015756;28;45217;-82
2021/11/30 10:53:50;;;;;;;;;19.75;13.75;;;;;8.18;100.00;101524.16;5015929;28;45426;-81
2021/11/30 10:56:18;;;;;;;;;14.50;12.25;;;;;8.17;100.00;101500.06;5001018;28;46794;-86
2021/11/30 10:58:44;;;;;;;;;12.75;11.75;;;;;8.10;100.00;101491.81;5018314;28;45893;-82
2021/11/30 11:01:20;;;;;;;;;12.25;11.75;;;;;8.14;100.00;101492.13;5010831;28;45447;-79
2021/11/30 11:04:01;;;;;;;;;15.00;13.25;;;;;8.15;100.00;101477.56;5019695;28;45177;-86
2021/11/30 11:06:31;;;;;;;;;15.25;13.75;;;;;8.20;100.00;101478.72;5019225;28;45935;-80
2021/11/30 11:09:04;;;;;;;;;13.50;11.00;;;;;8.35;100.00;101496.88;5017920;28;45897;-83
2021/11/30 11:11:38;;;;;;;;;8.50;7.00;;;;;8.29;100.00;101476.75;5019140;28;45321;-87
2021/11/30 11:14:15;;;;;;;;;15.00;11.50;;;;;8.35;100.00;101490.06;5020053;28;45311;-84
2021/11/30 11:16:42;;;;;;;;;15.75;15.00;;;;;8.37;100.00;101465.22;5019507;28;45279;-80
2021/11/30 11:19:09;;;;;;;;;14.25;13.25;;;;;8.36;100.00;101478.03;5018656;28;45777;-87
2021/11/30 11:21:39;;;;;;;;;12.00;11.00;;;;;8.36;100.00;101460.88;5019442;28;45372;-89
2021/11/30 11:24:09;;;;;;;;;10.75;10.75;;;;;8.37;100.00;101472.97;5019644;28;45415;-89
2021/11/30 11:26:36;;;;;;;;;10.25;9.00;;;;;8.39;100.00;101461.84;5031401;28;45436;-90